Time;durP1;ratioP1;P1;durP2;ratioP2;P2;SDS_P1;SDS_P2;PMS_P1;PMS_P2;Temp;Humidity;BMP_temperature;BMP_pressure;BME280_temperature;BME280_humidity;BME280_pressure;Samples;Min_cycle;Max_cycle;Signal;HPM_P1;HPM_P2
2023/09/09 00:00:40;;;;;;;13.67;12.40;;;19.40;99.90;;;;;;5015827;28;20209;-68
2023/09/09 00:03:06;;;;;;;12.40;11.40;;;19.40;99.90;;;;;;5015022;28;20476;-69
2023/09/09 00:05:33;;;;;;;13.27;12.17;;;19.40;99.90;;;;;;5015162;28;20265;-68
2023/09/09 00:07:59;;;;;;;13.07;11.97;;;19.40;99.90;;;;;;5015921;28;20441;-68
2023/09/09 00:10:24;;;;;;;12.73;11.43;;;19.30;99.90;;;;;;5015159;28;20433;-68
2023/09/09 00:12:50;;;;;;;11.43;10.50;;;19.30;99.90;;;;;;5012801;28;21192;-69
2023/09/09 00:15:15;;;;;;;13.20;12.17;;;19.30;99.90;;;;;;5014510;28;20221;-68
2023/09/09 00:17:41;;;;;;;13.13;10.80;;;19.30;99.90;;;;;;5015441;28;20202;-67
2023/09/09 00:20:14;;;;;;;12.63;11.57;;;19.20;99.90;;;;;;5013949;28;20199;-68
2023/09/09 00:22:39;;;;;;;13.47;12.07;;;19.30;99.90;;;;;;5014535;28;20675;-68
2023/09/09 00:25:06;;;;;;;13.73;12.30;;;19.30;99.90;;;;;;5014322;28;20430;-68
2023/09/09 00:27:31;;;;;;;15.20;11.60;;;19.30;99.90;;;;;;5014673;28;20179;-68
2023/09/09 00:29:57;;;;;;;13.40;12.30;;;19.30;99.90;;;;;;5014744;28;20441;-68
2023/09/09 00:32:22;;;;;;;12.10;11.03;;;19.30;99.90;;;;;;5015375;28;20236;-68
2023/09/09 00:34:48;;;;;;;12.30;11.13;;;19.30;99.90;;;;;;5013535;28;20187;-67
2023/09/09 00:37:13;;;;;;;14.10;12.90;;;19.30;99.90;;;;;;5013011;28;20193;-71
2023/09/09 00:39:39;;;;;;;11.90;10.90;;;19.30;99.90;;;;;;5014328;28;20210;-69
2023/09/09 00:42:04;;;;;;;12.90;11.70;;;19.50;99.90;;;;;;5015172;28;20183;-68
2023/09/09 00:44:30;;;;;;;14.77;13.43;;;19.30;99.90;;;;;;5015030;28;20186;-68
2023/09/09 00:46:57;;;;;;;12.90;11.90;;;19.30;99.90;;;;;;5013601;28;20229;-68
2023/09/09 00:49:23;;;;;;;13.33;12.23;;;19.40;99.90;;;;;;5014680;28;20854;-68
2023/09/09 00:51:49;;;;;;;15.47;11.10;;;19.20;99.90;;;;;;5013384;28;20434;-68
2023/09/09 00:54:14;;;;;;;13.90;12.90;;;19.20;99.90;;;;;;5013776;28;20233;-68
2023/09/09 00:56:44;;;;;;;14.17;12.97;;;19.20;99.90;;;;;;5009783;28;20191;-69
2023/09/09 00:59:12;;;;;;;12.50;11.50;;;19.10;99.90;;;;;;5009963;28;20192;-67
2023/09/09 01:01:37;;;;;;;12.63;11.63;;;19.10;99.90;;;;;;5008404;28;20496;-68
2023/09/09 01:04:03;;;;;;;12.00;11.03;;;19.00;99.90;;;;;;5013453;28;20442;-69
2023/09/09 01:06:29;;;;;;;13.03;11.93;;;19.00;99.90;;;;;;5013365;28;20182;-68
2023/09/09 01:08:54;;;;;;;13.37;12.27;;;18.90;99.90;;;;;;5011847;28;20457;-68
2023/09/09 01:11:20;;;;;;;14.43;13.20;;;18.90;99.90;;;;;;5007998;28;20175;-68
2023/09/09 01:13:46;;;;;;;13.80;12.53;;;18.90;99.90;;;;;;5005495;28;20635;-68
2023/09/09 01:16:12;;;;;;;14.40;13.10;;;18.90;99.90;;;;;;5011517;28;20211;-68
2023/09/09 01:18:38;;;;;;;14.30;13.10;;;18.90;99.90;;;;;;5012829;28;20202;-69
2023/09/09 01:21:11;;;;;;;15.23;12.30;;;18.90;99.90;;;;;;5013212;28;20468;-68
2023/09/09 01:23:37;;;;;;;13.10;12.03;;;18.90;99.90;;;;;;5014102;28;20179;-68
2023/09/09 01:26:03;;;;;;;14.00;12.70;;;18.90;99.90;;;;;;5013101;28;20464;-68
2023/09/09 01:28:29;;;;;;;20.40;12.63;;;18.90;99.90;;;;;;5012489;28;20464;-68
2023/09/09 01:30:55;;;;;;;14.53;13.23;;;18.90;99.90;;;;;;5014309;28;20425;-68
2023/09/09 01:33:20;;;;;;;14.27;13.17;;;18.90;99.90;;;;;;5012755;28;20198;-68
2023/09/09 01:35:46;;;;;;;13.83;12.67;;;18.90;99.90;;;;;;5013650;28;20619;-68
2023/09/09 01:38:12;;;;;;;14.10;12.90;;;18.90;99.90;;;;;;5006472;28;20210;-68
2023/09/09 01:40:38;;;;;;;13.87;12.47;;;18.90;99.90;;;;;;5011991;28;20465;-68
2023/09/09 01:43:04;;;;;;;13.93;12.73;;;18.90;99.90;;;;;;5013550;28;20418;-67
2023/09/09 01:45:29;;;;;;;12.93;11.80;;;18.80;99.90;;;;;;5013777;28;20186;-68
2023/09/09 01:47:55;;;;;;;13.83;12.53;;;18.80;99.90;;;;;;5014193;28;20221;-68
2023/09/09 01:50:21;;;;;;;13.80;12.67;;;18.80;99.90;;;;;;5007138;28;20182;-68
2023/09/09 01:52:46;;;;;;;13.40;12.40;;;18.80;99.90;;;;;;5011878;28;20182;-68
2023/09/09 01:55:12;;;;;;;13.73;12.53;;;18.80;99.90;;;;;;5013914;28;20198;-68
2023/09/09 01:57:38;;;;;;;12.60;11.60;;;18.70;99.90;;;;;;5012373;28;20266;-68
2023/09/09 02:00:10;;;;;;;14.33;12.90;;;18.70;99.90;;;;;;5012316;28;20202;-68
2023/09/09 02:02:35;;;;;;;13.63;12.43;;;18.70;99.90;;;;;;5013726;28;20570;-67
2023/09/09 02:05:02;;;;;;;14.13;12.70;;;18.70;99.90;;;;;;5012729;28;20433;-68
2023/09/09 02:07:28;;;;;;;13.50;12.40;;;18.70;99.90;;;;;;5012847;28;20228;-68
2023/09/09 02:09:53;;;;;;;15.20;13.60;;;18.70;99.90;;;;;;5013141;28;20832;-68
2023/09/09 02:12:19;;;;;;;13.47;12.37;;;18.80;99.90;;;;;;5013669;28;20183;-67
2023/09/09 02:14:44;;;;;;;17.23;15.63;;;18.70;99.90;;;;;;5013613;28;20233;-68
2023/09/09 02:17:11;;;;;;;15.40;14.13;;;18.60;99.90;;;;;;5012904;28;20191;-68
2023/09/09 02:19:37;;;;;;;13.87;12.67;;;18.60;99.90;;;;;;5008965;28;20517;-68
2023/09/09 02:22:02;;;;;;;14.37;12.97;;;18.60;99.90;;;;;;5012605;28;20433;-67
2023/09/09 02:24:28;;;;;;;13.40;12.30;;;18.50;99.90;;;;;;5012240;28;20190;-68
2023/09/09 02:26:53;;;;;;;14.77;13.47;;;18.50;99.90;;;;;;5012274;28;20644;-68
2023/09/09 02:29:19;;;;;;;13.27;11.93;;;18.50;99.90;;;;;;5012167;28;20195;-67
2023/09/09 02:31:45;;;;;;;13.67;12.27;;;18.50;99.90;;;;;;5012061;28;20174;-67
2023/09/09 02:34:10;;;;;;;14.30;13.10;;;18.50;99.90;;;;;;5011160;28;20706;-68
2023/09/09 02:36:36;;;;;;;13.17;11.90;;;18.40;99.90;;;;;;5013384;28;20307;-68
2023/09/09 02:39:01;;;;;;;14.43;13.00;;;18.40;99.90;;;;;;5011065;28;20215;-68
2023/09/09 02:41:27;;;;;;;14.10;13.00;;;18.40;99.90;;;;;;5009969;28;20215;-68
2023/09/09 02:43:52;;;;;;;13.77;12.57;;;18.40;99.90;;;;;;5012883;28;20225;-68
2023/09/09 02:46:21;;;;;;;14.73;13.17;;;18.50;99.90;;;;;;5013007;28;20628;-68
2023/09/09 02:48:47;;;;;;;14.07;12.87;;;18.30;99.90;;;;;;5012181;28;20217;-68
2023/09/09 02:51:13;;;;;;;15.27;13.90;;;18.30;99.90;;;;;;5009965;28;20933;-68
2023/09/09 02:53:38;;;;;;;15.07;12.43;;;18.30;99.90;;;;;;5000891;28;20433;-68
2023/09/09 02:56:04;;;;;;;13.97;12.67;;;18.30;99.90;;;;;;5012175;28;20695;-68
2023/09/09 02:58:29;;;;;;;15.63;14.20;;;18.30;99.90;;;;;;5011864;28;20302;-68
2023/09/09 03:01:05;;;;;;;12.80;11.67;;;18.30;99.90;;;;;;5009025;28;20211;-68
2023/09/09 03:03:31;;;;;;;14.13;13.03;;;18.30;99.90;;;;;;5010935;28;20236;-68
2023/09/09 03:05:58;;;;;;;14.07;12.90;;;18.40;99.90;;;;;;5005501;28;20460;-68
2023/09/09 03:08:23;;;;;;;15.13;13.83;;;18.40;99.90;;;;;;5011705;28;20461;-68
2023/09/09 03:10:49;;;;;;;13.30;12.17;;;18.70;99.90;;;;;;5012047;28;20504;-68
2023/09/09 03:13:14;;;;;;;12.80;11.80;;;18.40;99.90;;;;;;5010608;28;20183;-68
2023/09/09 03:15:40;;;;;;;14.03;12.77;;;18.40;99.90;;;;;;5003266;28;20171;-68
2023/09/09 03:18:05;;;;;;;13.87;12.77;;;18.40;99.90;;;;;;5011528;28;20300;-68
2023/09/09 03:20:31;;;;;;;13.80;12.70;;;18.30;99.90;;;;;;5012231;28;20313;-68
2023/09/09 03:22:59;;;;;;;14.30;12.80;;;18.30;99.90;;;;;;5008344;28;20189;-68
2023/09/09 03:25:24;;;;;;;14.60;13.20;;;18.30;99.90;;;;;;5007098;28;20261;-68
2023/09/09 03:27:50;;;;;;;15.13;13.83;;;18.20;99.90;;;;;;5011652;28;20944;-68
2023/09/09 03:30:15;;;;;;;16.60;14.93;;;18.20;99.90;;;;;;5011452;28;20668;-68
2023/09/09 03:32:41;;;;;;;14.93;13.83;;;18.20;99.90;;;;;;5010432;28;20276;-68
2023/09/09 03:35:07;;;;;;;14.43;13.23;;;18.20;99.90;;;;;;5010506;28;20660;-68
2023/09/09 03:37:32;;;;;;;14.57;13.47;;;18.20;99.90;;;;;;5011424;28;20210;-68
2023/09/09 03:39:58;;;;;;;15.30;13.90;;;18.20;99.90;;;;;;5009556;28;20587;-67
2023/09/09 03:42:24;;;;;;;14.70;13.40;;;18.20;99.90;;;;;;5009985;28;20175;-67
2023/09/09 03:44:49;;;;;;;14.23;13.10;;;18.20;99.90;;;;;;5010464;28;20197;-68
2023/09/09 03:47:15;;;;;;;14.37;13.20;;;18.20;99.90;;;;;;5011956;28;20175;-67
2023/09/09 03:49:40;;;;;;;17.57;14.17;;;18.20;99.90;;;;;;5011141;28;20545;-68
2023/09/09 03:52:06;;;;;;;15.40;14.00;;;18.20;99.90;;;;;;5010431;28;20190;-68
2023/09/09 03:54:31;;;;;;;16.20;14.83;;;18.20;99.90;;;;;;5010286;28;20199;-68
2023/09/09 03:56:57;;;;;;;15.83;14.40;;;18.20;99.90;;;;;;5011378;28;20253;-68
2023/09/09 03:59:22;;;;;;;14.93;13.53;;;18.20;99.90;;;;;;5011754;28;20198;-68
2023/09/09 04:01:48;;;;;;;13.70;12.60;;;18.20;99.90;;;;;;5009599;28;20187;-67
2023/09/09 04:04:14;;;;;;;14.73;13.43;;;18.20;99.90;;;;;;5006585;28;20170;-68
2023/09/09 04:06:39;;;;;;;15.83;14.40;;;18.10;99.90;;;;;;5011014;28;20526;-68
2023/09/09 04:09:05;;;;;;;14.60;13.30;;;18.10;99.90;;;;;;5010470;28;20203;-67
2023/09/09 04:11:31;;;;;;;15.53;14.17;;;18.10;99.90;;;;;;5010078;28;20210;-68
2023/09/09 04:13:59;;;;;;;15.30;13.70;;;18.10;99.90;;;;;;5010910;28;20592;-68
2023/09/09 04:16:25;;;;;;;15.23;13.93;;;18.10;99.90;;;;;;5008392;28;20183;-68
2023/09/09 04:18:50;;;;;;;15.40;14.00;;;18.10;99.90;;;;;;5009257;28;21058;-68
2023/09/09 04:21:16;;;;;;;17.10;15.57;;;18.00;99.90;;;;;;5009840;28;20206;-68
2023/09/09 04:23:41;;;;;;;16.80;15.30;;;18.10;99.90;;;;;;5004931;28;20667;-68
2023/09/09 04:26:07;;;;;;;16.47;15.00;;;18.10;99.90;;;;;;5007155;28;20552;-68
2023/09/09 04:28:32;;;;;;;17.43;15.93;;;18.00;99.90;;;;;;5010656;28;20195;-67
2023/09/09 04:30:58;;;;;;;17.53;16.13;;;18.10;99.90;;;;;;5008321;28;20183;-68
2023/09/09 04:33:23;;;;;;;16.03;14.73;;;18.00;99.90;;;;;;5009764;28;20187;-68
2023/09/09 04:35:49;;;;;;;16.53;15.03;;;18.00;99.90;;;;;;5008505;28;20237;-67
2023/09/09 04:38:14;;;;;;;15.57;14.13;;;18.00;99.90;;;;;;5009229;28;20691;-67
2023/09/09 04:40:40;;;;;;;17.87;16.27;;;18.00;99.90;;;;;;5010115;28;20206;-68
2023/09/09 04:43:07;;;;;;;17.07;15.47;;;18.00;99.90;;;;;;5013533;28;20517;-67
2023/09/09 04:45:32;;;;;;;15.70;14.40;;;18.00;99.90;;;;;;5011261;28;20438;-67
2023/09/09 04:47:58;;;;;;;17.47;15.87;;;18.00;99.90;;;;;;5014212;28;20512;-68
2023/09/09 04:50:23;;;;;;;16.17;14.80;;;17.90;99.90;;;;;;5013842;28;20191;-68
2023/09/09 04:52:49;;;;;;;16.20;14.87;;;17.90;99.90;;;;;;5014962;28;20179;-68
2023/09/09 04:55:15;;;;;;;20.97;19.27;;;17.90;99.90;;;;;;5011507;28;20254;-68
2023/09/09 04:57:41;;;;;;;17.67;16.27;;;17.90;99.90;;;;;;5013369;28;20179;-67
2023/09/09 05:00:07;;;;;;;17.50;16.00;;;17.80;99.90;;;;;;5014768;28;20445;-67
2023/09/09 05:02:34;;;;;;;20.03;18.20;;;17.80;99.90;;;;;;5016734;28;20816;-68
2023/09/09 05:05:04;;;;;;;18.17;16.37;;;17.70;99.90;;;;;;5015953;28;20555;-67
2023/09/09 05:07:34;;;;;;;16.87;15.23;;;17.70;99.90;;;;;;5009006;28;21113;-67
2023/09/09 05:10:00;;;;;;;17.27;15.77;;;17.70;99.90;;;;;;5015091;28;20801;-67
2023/09/09 05:12:25;;;;;;;16.80;15.30;;;17.70;99.90;;;;;;5014755;28;20425;-68
2023/09/09 05:14:51;;;;;;;16.73;15.23;;;17.80;99.90;;;;;;5012942;28;20274;-67
2023/09/09 05:17:16;;;;;;;17.60;16.13;;;17.70;99.90;;;;;;5012698;28;20652;-67
2023/09/09 05:19:42;;;;;;;16.00;14.60;;;17.80;99.90;;;;;;5013612;28;20211;-68
2023/09/09 05:22:07;;;;;;;15.83;14.43;;;17.90;99.90;;;;;;5013812;28;20165;-68
2023/09/09 05:24:33;;;;;;;17.73;15.97;;;17.90;99.90;;;;;;5013135;28;20219;-68
2023/09/09 05:26:58;;;;;;;17.03;15.40;;;17.90;99.90;;;;;;5010980;28;20209;-68
2023/09/09 05:29:24;;;;;;;16.40;15.00;;;17.90;99.90;;;;;;5012706;28;20213;-67
2023/09/09 05:31:49;;;;;;;15.87;14.30;;;18.10;99.90;;;;;;5013925;28;20531;-68
2023/09/09 05:34:15;;;;;;;17.50;16.00;;;18.20;99.90;;;;;;5013250;28;20183;-67
2023/09/09 05:36:40;;;;;;;17.13;15.57;;;18.30;99.90;;;;;;5012876;28;20309;-67
2023/09/09 05:39:05;;;;;;;18.90;17.20;;;18.50;99.90;;;;;;5013577;28;20710;-68
2023/09/09 05:41:31;;;;;;;18.63;16.83;;;18.60;99.90;;;;;;5012636;28;20203;-68
2023/09/09 05:43:57;;;;;;;16.47;14.80;;;18.70;99.90;;;;;;5013020;28;20183;-67
2023/09/09 05:46:22;;;;;;;15.67;14.27;;;18.70;99.90;;;;;;5013467;28;20211;-68
2023/09/09 05:48:48;;;;;;;16.40;14.90;;;18.80;99.90;;;;;;5009907;28;20199;-67
2023/09/09 05:51:14;;;;;;;15.57;14.07;;;19.00;99.90;;;;;;5012425;28;20191;-67
2023/09/09 05:53:41;;;;;;;14.50;13.40;;;19.20;99.90;;;;;;5011513;28;20179;-68
2023/09/09 05:56:06;;;;;;;15.20;13.80;;;19.40;99.90;;;;;;5010210;28;20179;-68
2023/09/09 05:58:33;;;;;;;16.27;14.80;;;19.70;99.90;;;;;;5011588;28;20998;-68
2023/09/09 06:00:59;;;;;;;14.37;13.13;;;19.90;99.90;;;;;;5013677;28;20187;-67
2023/09/09 06:03:24;;;;;;;14.27;13.07;;;20.10;99.90;;;;;;5013656;28;20418;-67
2023/09/09 06:05:50;;;;;;;15.47;13.90;;;20.30;99.90;;;;;;5013168;28;20615;-68
2023/09/09 06:08:15;;;;;;;16.30;15.00;;;20.50;99.90;;;;;;5012739;28;20203;-68
2023/09/09 06:10:41;;;;;;;15.50;14.00;;;20.70;99.90;;;;;;5012863;28;20175;-68
2023/09/09 06:13:06;;;;;;;15.53;14.23;;;20.90;99.90;;;;;;5006952;28;20573;-67
2023/09/09 06:15:32;;;;;;;17.17;15.17;;;21.00;99.90;;;;;;5011535;28;20187;-68
2023/09/09 06:17:59;;;;;;;16.97;15.50;;;21.10;99.90;;;;;;5012672;28;20206;-68
2023/09/09 06:20:25;;;;;;;15.67;14.57;;;21.30;99.90;;;;;;5013365;28;20205;-68
2023/09/09 06:22:51;;;;;;;14.53;13.07;;;21.40;99.90;;;;;;5013296;28;20425;-68
2023/09/09 06:25:17;;;;;;;14.33;13.23;;;21.60;99.90;;;;;;5012419;28;20498;-68
2023/09/09 06:27:44;;;;;;;14.23;13.03;;;21.80;99.90;;;;;;5013458;28;20197;-68
2023/09/09 06:30:10;;;;;;;16.27;14.87;;;21.90;99.90;;;;;;5012680;28;20449;-68
2023/09/09 06:32:36;;;;;;;14.17;13.07;;;22.00;99.90;;;;;;5009858;28;20549;-68
2023/09/09 06:35:02;;;;;;;16.03;14.43;;;22.10;99.90;;;;;;5010207;28;20580;-68
2023/09/09 06:37:28;;;;;;;16.47;15.07;;;22.30;99.90;;;;;;5013016;28;20174;-68
2023/09/09 06:39:53;;;;;;;14.23;12.83;;;22.50;99.90;;;;;;5012684;28;20457;-68
2023/09/09 06:42:19;;;;;;;13.90;12.90;;;22.80;99.90;;;;;;5013119;28;20179;-68
2023/09/09 06:44:44;;;;;;;14.80;13.53;;;23.00;99.90;;;;;;5012173;28;20189;-68
2023/09/09 06:47:11;;;;;;;14.63;13.23;;;23.00;99.90;;;;;;5013072;28;20191;-67
2023/09/09 06:49:36;;;;;;;14.40;13.40;;;23.10;99.90;;;;;;5011180;28;20198;-68
2023/09/09 06:52:02;;;;;;;14.27;13.23;;;23.10;99.90;;;;;;5012296;28;20582;-68
2023/09/09 06:54:28;;;;;;;13.57;12.47;;;23.30;99.90;;;;;;5008997;28;20648;-68
2023/09/09 06:56:53;;;;;;;13.43;12.43;;;23.60;99.90;;;;;;5012850;28;20542;-68
2023/09/09 06:59:19;;;;;;;14.20;12.67;;;23.90;99.90;;;;;;5010022;28;20210;-68
2023/09/09 07:01:44;;;;;;;14.83;13.33;;;24.20;99.90;;;;;;5012446;28;20501;-68
2023/09/09 07:04:10;;;;;;;14.50;13.30;;;24.50;99.90;;;;;;5009383;28;20185;-68
2023/09/09 07:06:35;;;;;;;15.73;14.53;;;24.70;99.90;;;;;;5014843;28;20174;-68
2023/09/09 07:09:01;;;;;;;13.50;12.37;;;24.90;99.90;;;;;;5015080;28;20622;-68
2023/09/09 07:11:26;;;;;;;14.20;13.07;;;24.90;99.90;;;;;;5011287;28;20186;-69
2023/09/09 07:13:52;;;;;;;13.23;12.03;;;25.10;99.90;;;;;;5006313;28;20190;-68
2023/09/09 07:16:17;;;;;;;13.00;11.40;;;25.30;99.90;;;;;;5011629;28;20273;-68
2023/09/09 07:18:43;;;;;;;12.53;11.53;;;25.50;99.90;;;;;;5011764;28;20203;-68
2023/09/09 07:21:08;;;;;;;12.97;11.97;;;25.90;99.90;;;;;;5012496;28;20663;-68
2023/09/09 07:23:34;;;;;;;13.13;11.97;;;26.10;99.90;;;;;;5009075;28;20586;-68
2023/09/09 07:25:59;;;;;;;13.77;12.67;;;26.40;99.90;;;;;;5011514;28;20179;-69
2023/09/09 07:28:25;;;;;;;12.37;11.37;;;26.70;99.90;;;;;;5012195;28;20208;-68
2023/09/09 07:30:51;;;;;;;12.93;11.73;;;26.90;99.90;;;;;;5012111;28;20659;-69
2023/09/09 07:33:17;;;;;;;13.03;12.03;;;27.10;99.90;;;;;;5009313;28;20228;-69
2023/09/09 07:35:43;;;;;;;12.27;11.27;;;27.30;99.90;;;;;;5010616;28;20445;-68
2023/09/09 07:38:09;;;;;;;13.10;12.10;;;27.40;99.90;;;;;;5030335;23;20871;-66
2023/09/09 07:40:34;;;;;;;13.60;12.40;;;27.70;99.90;;;;;;4992149;28;20545;-66
2023/09/09 07:43:00;;;;;;;12.87;11.67;;;27.90;99.90;;;;;;4992275;28;20218;-66
2023/09/09 07:45:27;;;;;;;12.50;11.50;;;28.20;99.90;;;;;;5000037;28;20710;-66
2023/09/09 07:47:52;;;;;;;13.50;12.40;;;28.30;99.90;;;;;;5002561;28;20602;-65
2023/09/09 07:50:18;;;;;;;12.77;11.80;;;28.30;99.90;;;;;;4971428;28;20526;-66
2023/09/09 07:52:43;;;;;;;12.30;11.40;;;28.60;99.90;;;;;;4979797;28;20179;-65
2023/09/09 07:55:09;;;;;;;11.20;10.20;;;28.60;99.90;;;;;;4970837;28;20184;-66
2023/09/09 07:57:35;;;;;;;11.43;10.60;;;28.70;99.90;;;;;;4976949;28;20263;-65
2023/09/09 08:00:01;;;;;;;10.70;10.00;;;28.90;99.90;;;;;;4968461;28;20211;-66
2023/09/09 08:02:27;;;;;;;12.40;11.40;;;29.20;99.90;;;;;;4978470;28;20187;-66
2023/09/09 08:04:52;;;;;;;11.30;10.40;;;29.30;99.90;;;;;;4982790;28;20983;-66
2023/09/09 08:07:18;;;;;;;11.23;10.33;;;29.60;99.90;;;;;;4984247;28;20584;-66
2023/09/09 08:09:44;;;;;;;11.03;10.13;;;29.60;99.90;;;;;;4976077;28;20200;-66
2023/09/09 08:12:09;;;;;;;11.83;10.80;;;29.90;99.90;;;;;;4972132;28;20579;-66
2023/09/09 08:14:35;;;;;;;12.60;11.57;;;30.30;99.90;;;;;;4972145;28;20442;-66
2023/09/09 08:17:00;;;;;;;11.50;10.60;;;30.70;99.90;;;;;;4986682;28;20176;-67
2023/09/09 08:19:26;;;;;;;11.60;10.63;;;31.00;99.90;;;;;;4967588;28;20629;-67
2023/09/09 08:21:52;;;;;;;11.77;10.93;;;31.40;99.90;;;;;;4974498;28;20172;-66
2023/09/09 08:24:17;;;;;;;11.40;10.43;;;31.60;99.90;;;;;;4990139;28;20187;-67
2023/09/09 08:26:43;;;;;;;10.83;10.03;;;31.60;99.80;;;;;;4988115;28;20655;-67
2023/09/09 08:29:08;;;;;;;10.77;9.87;;;31.70;99.30;;;;;;4984423;28;20687;-68
2023/09/09 08:31:35;;;;;;;12.27;11.23;;;31.80;98.80;;;;;;4971378;28;20191;-69
2023/09/09 08:34:00;;;;;;;11.60;10.70;;;32.00;97.60;;;;;;4968935;28;20180;-69
2023/09/09 08:36:26;;;;;;;12.60;11.40;;;31.40;97.80;;;;;;4984296;28;20445;-68
2023/09/09 08:38:56;;;;;;;12.00;11.10;;;31.90;97.40;;;;;;4974680;28;20715;-69
2023/09/09 08:41:22;;;;;;;11.90;10.90;;;31.60;97.10;;;;;;4976207;28;20247;-68
2023/09/09 08:44:08;;;;;;;11.57;10.77;;;32.00;96.70;;;;;;4973387;28;20430;-68
2023/09/09 08:46:33;;;;;;;10.97;10.17;;;32.60;95.20;;;;;;4987044;28;20171;-68
2023/09/09 08:49:04;;;;;;;11.43;10.33;;;33.00;93.90;;;;;;4977533;28;21060;-68
2023/09/09 08:51:37;;;;;;;11.40;10.30;;;33.40;92.70;;;;;;4976013;28;20176;-68
2023/09/09 08:54:06;;;;;;;11.47;10.47;;;33.90;90.90;;;;;;4969614;28;20915;-66
2023/09/09 08:56:32;;;;;;;10.90;10.10;;;34.40;88.40;;;;;;4977179;28;20446;-68
2023/09/09 08:58:58;;;;;;;10.63;9.93;;;34.70;86.70;;;;;;4971901;28;20486;-66
2023/09/09 09:01:26;;;;;;;9.77;9.10;;;34.40;84.80;;;;;;4975566;28;20443;-66
2023/09/09 09:03:53;;;;;;;11.10;10.30;;;35.00;83.90;;;;;;4973643;28;20325;-66
2023/09/09 09:06:19;;;;;;;11.87;10.97;;;35.30;81.20;;;;;;4963329;28;20451;-66
2023/09/09 09:08:45;;;;;;;10.53;9.50;;;35.50;79.20;;;;;;4974148;28;20464;-66
2023/09/09 09:11:13;;;;;;;10.77;9.80;;;36.10;76.90;;;;;;4973305;28;20191;-66
2023/09/09 09:13:38;;;;;;;10.30;9.40;;;36.60;72.90;;;;;;4972057;28;20172;-67
2023/09/09 09:16:04;;;;;;;10.40;9.60;;;37.30;71.50;;;;;;4971225;28;20573;-66
2023/09/09 09:18:29;;;;;;;10.03;9.23;;;37.10;69.10;;;;;;4982020;28;20575;-65
2023/09/09 09:21:06;;;;;;;10.57;9.47;;;36.90;68.30;;;;;;4972765;28;20212;-67
2023/09/09 09:23:32;;;;;;;10.87;9.97;;;37.20;67.50;;;;;;4979585;28;20542;-66
2023/09/09 09:25:57;;;;;;;8.30;7.80;;;37.70;65.40;;;;;;4973633;28;20432;-67
2023/09/09 09:28:27;;;;;;;9.37;8.80;;;38.10;62.80;;;;;;4980605;28;20690;-66
2023/09/09 09:30:53;;;;;;;9.73;8.93;;;38.80;60.70;;;;;;4964996;28;20188;-66
2023/09/09 09:33:24;;;;;;;9.17;8.60;;;39.10;59.30;;;;;;4966178;28;20948;-66
2023/09/09 09:35:50;;;;;;;10.40;9.70;;;39.50;57.90;;;;;;4964951;28;20232;-66
2023/09/09 09:38:17;;;;;;;10.70;9.80;;;39.70;57.40;;;;;;4979606;28;20470;-66
2023/09/09 09:40:43;;;;;;;10.50;9.70;;;39.10;56.80;;;;;;4981807;28;20205;-66
2023/09/09 09:43:19;;;;;;;10.77;9.80;;;38.90;56.30;;;;;;4980936;28;20485;-66
2023/09/09 09:45:44;;;;;;;10.70;9.80;;;39.20;56.10;;;;;;4960841;28;20442;-66
2023/09/09 09:48:10;;;;;;;9.77;9.17;;;40.00;55.00;;;;;;4986925;28;20508;-67
2023/09/09 09:50:37;;;;;;;10.57;9.87;;;40.90;53.50;;;;;;4987967;28;20263;-67
2023/09/09 09:53:05;;;;;;;9.77;9.03;;;41.20;52.30;;;;;;4969301;28;20172;-66
2023/09/09 09:55:32;;;;;;;10.07;9.30;;;41.70;50.70;;;;;;4958236;28;20472;-68
2023/09/09 09:58:00;;;;;;;9.63;8.77;;;41.70;50.50;;;;;;4981592;28;20963;-66
2023/09/09 10:00:27;;;;;;;10.83;10.03;;;41.90;49.40;;;;;;4974784;28;21078;-66
2023/09/09 10:02:58;;;;;;;11.97;11.07;;;42.20;48.70;;;;;;4973154;28;20952;-66
2023/09/09 10:05:26;;;;;;;10.90;10.30;;;42.00;47.30;;;;;;4960500;28;20851;-66
2023/09/09 10:08:27;;;;;;;9.90;9.20;;;41.70;48.00;;;;;;4985489;28;20434;-66
2023/09/09 10:11:07;;;;;;;10.83;10.13;;;41.40;47.90;;;;;;4994110;28;20423;-66
2023/09/09 10:14:11;;;;;;;9.37;8.77;;;41.10;47.80;;;;;;4966279;28;20475;-66
2023/09/09 10:16:38;;;;;;;9.47;8.77;;;41.50;47.10;;;;;;4967177;28;20446;-66
2023/09/09 10:19:06;;;;;;;11.00;9.90;;;42.30;46.40;;;;;;4979167;28;20488;-66
2023/09/09 10:21:32;;;;;;;9.37;8.57;;;42.60;45.50;;;;;;4993978;28;20465;-66
2023/09/09 10:24:01;;;;;;;9.23;8.60;;;43.20;44.60;;;;;;4978548;28;20455;-66
2023/09/09 10:26:27;;;;;;;10.07;9.27;;;43.40;43.70;;;;;;4978313;28;21169;-67
2023/09/09 10:28:54;;;;;;;9.43;8.73;;;43.40;43.00;;;;;;4978181;28;20475;-66
2023/09/09 10:31:20;;;;;;;9.30;8.70;;;42.40;43.70;;;;;;4976196;28;20203;-66
2023/09/09 10:33:47;;;;;;;9.30;8.80;;;42.60;43.20;;;;;;4972107;28;20448;-67
2023/09/09 10:36:18;;;;;;;11.00;9.87;;;43.30;42.90;;;;;;4964596;28;20243;-66
2023/09/09 10:38:43;;;;;;;10.43;9.70;;;43.60;42.30;;;;;;4969449;28;20837;-64
2023/09/09 10:41:11;;;;;;;10.20;9.53;;;44.50;41.10;;;;;;4973531;28;20428;-63
2023/09/09 10:43:36;;;;;;;9.70;9.00;;;44.80;40.50;;;;;;4970310;28;20191;-64
2023/09/09 10:46:02;;;;;;;8.70;8.17;;;44.50;40.00;;;;;;4966571;28;20462;-64
2023/09/09 10:48:28;;;;;;;10.53;9.53;;;44.90;39.40;;;;;;4981914;28;20670;-64
2023/09/09 10:50:54;;;;;;;8.50;7.63;;;45.40;38.90;;;;;;4965682;28;20204;-64
2023/09/09 10:53:22;;;;;;;10.80;8.83;;;45.10;37.80;;;;;;4964800;28;20181;-63
2023/09/09 10:55:51;;;;;;;10.13;9.40;;;44.30;38.00;;;;;;4958956;28;20554;-63
2023/09/09 10:58:18;;;;;;;9.60;9.00;;;45.40;37.90;;;;;;4967418;28;20443;-64
2023/09/09 11:00:46;;;;;;;9.90;9.03;;;45.40;38.10;;;;;;4972615;28;20427;-64
2023/09/09 11:03:17;;;;;;;9.63;8.27;;;44.90;38.10;;;;;;4959909;28;20447;-65
2023/09/09 11:05:59;;;;;;;8.40;7.70;;;45.00;38.10;;;;;;4966086;28;20446;-65
2023/09/09 11:08:31;;;;;;;8.80;8.20;;;45.30;37.40;;;;;;4988004;28;20454;-64
2023/09/09 11:11:16;;;;;;;7.90;7.40;;;45.00;37.00;;;;;;4965861;28;21158;-64
2023/09/09 11:13:57;;;;;;;8.37;7.57;;;45.70;37.10;;;;;;4964924;28;20841;-64
2023/09/09 11:16:31;;;;;;;14.73;7.30;;;45.70;35.50;;;;;;4965940;28;20454;-64
2023/09/09 11:18:59;;;;;;;9.03;8.17;;;43.30;37.00;;;;;;4973460;28;20510;-64
2023/09/09 11:21:25;;;;;;;9.70;8.23;;;43.70;37.70;;;;;;4966426;28;20451;-64
2023/09/09 11:23:51;;;;;;;8.37;7.73;;;44.00;37.20;;;;;;4970119;28;20964;-64
2023/09/09 11:26:17;;;;;;;8.37;7.77;;;44.30;37.40;;;;;;4961826;28;20519;-64
2023/09/09 11:28:45;;;;;;;10.50;8.50;;;44.50;37.20;;;;;;4967940;28;20452;-64
2023/09/09 11:31:12;;;;;;;8.20;7.53;;;44.90;36.10;;;;;;4970737;28;20185;-64
2023/09/09 11:33:38;;;;;;;9.63;8.10;;;45.20;36.00;;;;;;4968348;28;20447;-64
2023/09/09 11:36:04;;;;;;;7.10;6.50;;;45.40;35.30;;;;;;4963270;28;20443;-65
2023/09/09 11:38:31;;;;;;;9.07;8.17;;;45.60;35.20;;;;;;4973034;28;20451;-64
2023/09/09 11:40:57;;;;;;;9.43;8.33;;;46.50;34.80;;;;;;4970791;28;20426;-64
2023/09/09 11:43:22;;;;;;;9.83;7.60;;;45.80;34.90;;;;;;4970485;28;20940;-64
2023/09/09 11:45:48;;;;;;;10.20;8.17;;;45.70;34.90;;;;;;4964145;28;20191;-63
2023/09/09 11:48:14;;;;;;;9.50;6.87;;;44.40;35.60;;;;;;4972774;28;20223;-64
2023/09/09 11:50:43;;;;;;;9.50;7.00;;;44.90;34.80;;;;;;4967827;28;20356;-64
2023/09/09 11:53:11;;;;;;;8.23;7.73;;;45.50;34.90;;;;;;4968355;28;20287;-64
2023/09/09 11:55:38;;;;;;;15.10;6.87;;;45.90;35.30;;;;;;4962638;28;21024;-64
2023/09/09 11:58:04;;;;;;;8.33;7.53;;;46.60;34.20;;;;;;4953776;28;20502;-64
2023/09/09 12:00:29;;;;;;;8.00;7.10;;;47.20;33.30;;;;;;4961800;28;20436;-64
2023/09/09 12:02:55;;;;;;;8.00;7.27;;;48.00;32.90;;;;;;4964491;28;20207;-64
2023/09/09 12:05:21;;;;;;;8.80;7.97;;;49.30;33.10;;;;;;4969739;28;20192;-64
2023/09/09 12:07:47;;;;;;;8.40;7.60;;;50.10;31.50;;;;;;4971019;28;20188;-64
2023/09/09 12:10:14;;;;;;;9.13;8.20;;;49.40;31.30;;;;;;4970711;28;20246;-64
2023/09/09 12:12:45;;;;;;;8.07;7.47;;;49.80;30.50;;;;;;4968695;28;20465;-64
2023/09/09 12:15:13;;;;;;;7.87;7.13;;;49.50;29.90;;;;;;4962900;28;20439;-64
2023/09/09 12:17:38;;;;;;;8.10;6.87;;;46.40;30.60;;;;;;4972632;28;20455;-63
2023/09/09 12:20:05;;;;;;;12.57;7.23;;;43.70;32.60;;;;;;4971187;28;20462;-63
2023/09/09 12:22:35;;;;;;;7.73;6.83;;;44.10;33.10;;;;;;4967090;28;20276;-63
2023/09/09 12:25:05;;;;;;;9.00;7.03;;;45.20;32.10;;;;;;4964522;28;21016;-64
2023/09/09 12:27:44;;;;;;;11.60;7.00;;;46.10;31.80;;;;;;4971628;28;20795;-63